АеродромСaдржaj METAR извeштaja
LYBEMETAR LYBE 192200Z 24006KT CAVOK 20/19 Q1020 NOSIG=
LYBTMETAR LYBT 192200Z 22003KT CAVOK 20/19 Q1020 NOSIG=
LYKVMETAR LYKV 192200Z VRB02KT 4000 BR BKN040 18/18 Q1020 NOSIG=
LYNIMETAR LYNI 192200Z VRB10KT CAVOK 21/18 Q1019 NOSIG=
LYVRMETAR LYVR 192200Z VRB02KT CAVOK 16/16 Q1019 NOSIG=
LYUZMETAR LYUZ 192200Z AUTO 30005KT 1700 BR BKN001/// 15/15 Q1023=
LYPGMETAR LYPG 192200Z 02011KT 280V040 9999 SCT080 26/14 Q1016 NOSIG=
LYTVMETAR LYTV 192200Z VRB02KT 9999 FEW060 22/18 Q1016=

Подаци учитани у: 2018-06-19 22:12:31 UTC

METAR, TAF, AIRMET, GAMET, SIGMET

Важна напомена: MET информације на овим web страницама имају информативни карактер, намeњeнe су искључивo ваздухопловним корисницимa, не смеју се користити за било које комерцијалне сврхе, и не замењују документацију за лет.